createdAt,value
2019-05-12T00:00:51.141Z,7.73
2019-05-12T00:01:51.167Z,7.68
2019-05-12T00:02:51.191Z,7.67
2019-05-12T00:03:51.216Z,7.67
2019-05-12T00:04:51.236Z,7.58
2019-05-12T00:05:51.260Z,7.63
2019-05-12T00:06:51.284Z,7.67
2019-05-12T00:07:51.311Z,7.58
2019-05-12T00:08:51.329Z,7.61
2019-05-12T00:09:51.361Z,7.56
2019-05-12T00:10:51.378Z,7.55
2019-05-12T00:11:51.405Z,7.54
2019-05-12T00:12:51.432Z,7.58
2019-05-12T00:13:51.451Z,7.56
2019-05-12T00:14:51.475Z,7.55
2019-05-12T00:15:51.499Z,7.73
2019-05-12T00:16:51.520Z,7.61
2019-05-12T00:17:51.551Z,7.67
2019-05-12T00:18:51.567Z,7.52
2019-05-12T00:19:51.591Z,7.55
2019-05-12T00:20:51.621Z,7.52
2019-05-12T00:21:51.643Z,7.49
2019-05-12T00:22:51.665Z,7.55
2019-05-12T00:23:51.687Z,7.48
2019-05-12T00:24:54.334Z,7.48
2019-05-12T00:25:51.735Z,7.47
2019-05-12T00:26:51.757Z,7.45
2019-05-12T00:27:51.785Z,7.54
2019-05-12T00:28:51.804Z,7.47
2019-05-12T00:29:51.826Z,7.49
2019-05-12T00:30:51.857Z,7.48
2019-05-12T00:31:51.879Z,7.47
2019-05-12T00:32:51.897Z,7.45
2019-05-12T00:33:51.928Z,7.41
2019-05-12T00:34:54.971Z,7.44
2019-05-12T00:35:51.976Z,7.31
2019-05-12T00:36:51.992Z,7.36
2019-05-12T00:37:52.014Z,7.33
2019-05-12T00:38:52.038Z,7.33
2019-05-12T00:39:52.067Z,7.41
2019-05-12T00:40:52.088Z,7.27
2019-05-12T00:41:52.113Z,7.30
2019-05-12T00:42:52.132Z,7.30
2019-05-12T00:43:52.158Z,7.30
2019-05-12T00:44:52.178Z,7.29
2019-05-12T00:45:52.208Z,7.27
2019-05-12T00:46:52.228Z,7.29
2019-05-12T00:47:52.249Z,7.30
2019-05-12T00:48:52.274Z,7.23
2019-05-12T00:49:52.301Z,7.26
2019-05-12T00:50:52.320Z,7.22
2019-05-12T00:51:52.343Z,7.13
2019-05-12T00:52:52.364Z,7.21
2019-05-12T00:53:52.390Z,7.18
2019-05-12T00:54:52.414Z,7.23
2019-05-12T00:55:52.439Z,7.26
2019-05-12T00:56:52.467Z,7.29
2019-05-12T00:57:52.491Z,7.29
2019-05-12T00:58:52.506Z,7.13
2019-05-12T00:59:52.531Z,7.19
2019-05-12T01:00:52.556Z,7.23
2019-05-12T01:01:52.578Z,7.19
2019-05-12T01:02:52.603Z,7.22
2019-05-12T01:03:52.625Z,7.18
2019-05-12T01:04:52.647Z,7.13
2019-05-12T01:05:52.674Z,7.12
2019-05-12T01:06:52.700Z,7.13
2019-05-12T01:07:52.719Z,7.08
2019-05-12T01:08:52.742Z,7.12
2019-05-12T01:09:52.768Z,7.03
2019-05-12T01:10:52.792Z,7.08
2019-05-12T01:11:52.819Z,7.09
2019-05-12T01:12:52.845Z,7.09
2019-05-12T01:13:52.862Z,7.04
2019-05-12T01:14:52.887Z,7.03
2019-05-12T01:15:52.910Z,7.03
2019-05-12T01:16:52.939Z,7.01
2019-05-12T01:17:52.969Z,7.00
2019-05-12T01:18:52.981Z,7.01
2019-05-12T01:19:53.002Z,7.05
2019-05-12T01:20:53.028Z,6.98
2019-05-12T01:21:53.055Z,6.98
2019-05-12T01:22:53.075Z,7.00
2019-05-12T01:23:59.824Z,7.03
2019-05-12T01:24:53.119Z,7.03
2019-05-12T01:25:53.141Z,6.93
2019-05-12T01:26:53.175Z,7.04
2019-05-12T01:27:53.193Z,7.01
2019-05-12T01:28:53.217Z,7.04
2019-05-12T01:29:53.240Z,6.94
2019-05-12T01:30:53.263Z,7.04
2019-05-12T01:31:53.289Z,7.01
2019-05-12T01:32:53.316Z,6.93
2019-05-12T01:33:53.333Z,6.94
2019-05-12T01:34:53.355Z,6.95
2019-05-12T01:35:53.379Z,6.95
2019-05-12T01:36:53.401Z,6.93
2019-05-12T01:37:53.427Z,6.91
2019-05-12T01:38:53.451Z,6.93
2019-05-12T01:39:53.488Z,6.93
2019-05-12T01:40:53.498Z,6.97
2019-05-12T01:41:53.519Z,6.88
2019-05-12T01:42:53.551Z,6.94
2019-05-12T01:43:53.568Z,6.86
2019-05-12T01:44:53.591Z,6.93
2019-05-12T01:45:53.612Z,6.97
2019-05-12T01:46:53.644Z,6.97
2019-05-12T01:47:53.661Z,6.94
2019-05-12T01:48:53.684Z,6.93
2019-05-12T01:49:53.706Z,6.94
2019-05-12T01:50:53.731Z,6.93
2019-05-12T01:51:53.754Z,6.91
2019-05-12T01:52:53.787Z,6.95
2019-05-12T01:54:06.954Z,6.83
2019-05-12T01:54:53.828Z,6.82
2019-05-12T01:55:53.858Z,6.91
2019-05-12T01:56:53.869Z,6.79
2019-05-12T01:57:53.903Z,6.80
2019-05-12T01:58:53.925Z,6.83
2019-05-12T01:59:53.942Z,6.86
2019-05-12T02:00:53.970Z,6.88
2019-05-12T02:01:53.987Z,6.73
2019-05-12T02:02:54.015Z,6.72
2019-05-12T02:03:54.036Z,6.76
2019-05-12T02:04:54.064Z,6.79
2019-05-12T02:05:54.082Z,6.68
2019-05-12T02:06:54.109Z,6.73
2019-05-12T02:07:54.130Z,6.68
2019-05-12T02:08:54.151Z,6.72
2019-05-12T02:09:54.173Z,6.73
2019-05-12T02:10:54.199Z,6.72
2019-05-12T02:11:54.222Z,6.60
2019-05-12T02:12:54.245Z,6.68
2019-05-12T02:13:54.270Z,6.61
2019-05-12T02:14:54.296Z,6.58
2019-05-12T02:15:54.317Z,6.62
2019-05-12T02:16:54.346Z,6.67
2019-05-12T02:17:54.362Z,6.54
2019-05-12T02:18:54.391Z,6.57
2019-05-12T02:19:54.407Z,6.54
2019-05-12T02:20:54.430Z,6.54
2019-05-12T02:21:54.456Z,6.49
2019-05-12T02:22:54.477Z,6.54
2019-05-12T02:23:54.511Z,6.51
2019-05-12T02:24:54.527Z,6.55
2019-05-12T02:25:54.550Z,6.54
2019-05-12T02:26:54.573Z,6.47
2019-05-12T02:27:54.596Z,6.37
2019-05-12T02:28:54.627Z,6.42
2019-05-12T02:29:54.652Z,6.39
2019-05-12T02:30:54.668Z,6.37
2019-05-12T02:31:54.688Z,6.36
2019-05-12T02:32:58.792Z,6.37
2019-05-12T02:33:55.122Z,6.36
2019-05-12T02:34:54.949Z,6.42
2019-05-12T02:35:54.954Z,6.42
2019-05-12T02:36:55.679Z,6.37
2019-05-12T02:37:55.199Z,6.36
2019-05-12T02:38:55.965Z,6.43
2019-05-12T02:39:55.694Z,6.40
2019-05-12T02:40:55.606Z,6.42
2019-05-12T02:41:54.929Z,6.39
2019-05-12T02:42:55.272Z,6.37
2019-05-12T02:43:55.523Z,6.33
2019-05-12T02:44:55.318Z,6.37
2019-05-12T02:45:55.021Z,6.37
2019-05-12T02:46:55.383Z,6.28
2019-05-12T02:47:55.064Z,6.36
2019-05-12T02:48:55.082Z,6.26
2019-05-12T02:49:55.116Z,6.36
2019-05-12T02:50:55.132Z,6.26
2019-05-12T02:51:55.155Z,6.34
2019-05-12T02:52:55.179Z,6.26
2019-05-12T02:53:55.209Z,6.31
2019-05-12T02:55:00.301Z,6.36
2019-05-12T02:55:55.268Z,6.37
2019-05-12T02:56:55.277Z,6.44
2019-05-12T02:57:55.293Z,6.31
2019-05-12T02:58:55.317Z,6.47
2019-05-12T02:59:55.343Z,6.40
2019-05-12T03:00:55.371Z,6.40
2019-05-12T03:01:55.390Z,6.39
2019-05-12T03:02:55.413Z,6.49
2019-05-12T03:03:55.436Z,6.44
2019-05-12T03:04:55.464Z,6.44
2019-05-12T03:05:55.479Z,6.43
2019-05-12T03:06:55.515Z,6.44
2019-05-12T03:07:55.526Z,6.44
2019-05-12T03:08:55.550Z,6.47
2019-05-12T03:09:55.575Z,6.44
2019-05-12T03:10:55.608Z,6.42
2019-05-12T03:11:55.732Z,6.39
2019-05-12T03:12:55.644Z,6.42
2019-05-12T03:13:55.672Z,6.44
2019-05-12T03:14:55.689Z,6.39
2019-05-12T03:15:55.714Z,6.43
2019-05-12T03:16:55.744Z,6.52
2019-05-12T03:17:55.769Z,6.46
2019-05-12T03:18:55.796Z,6.54
2019-05-12T03:19:55.806Z,6.44
2019-05-12T03:20:55.831Z,6.46
2019-05-12T03:21:55.868Z,6.44
2019-05-12T03:22:55.879Z,6.44
2019-05-12T03:23:55.902Z,6.43
2019-05-12T03:25:10.320Z,6.44
2019-05-12T03:25:55.945Z,6.60
2019-05-12T03:26:55.971Z,6.43
2019-05-12T03:27:55.994Z,6.54
2019-05-12T03:28:56.021Z,6.55
2019-05-12T03:29:56.041Z,6.52
2019-05-12T03:30:57.939Z,6.49
2019-05-12T03:31:57.399Z,6.52
2019-05-12T03:32:57.959Z,6.52
2019-05-12T03:34:00.293Z,6.46
2019-05-12T03:34:57.874Z,6.51
2019-05-12T03:36:00.502Z,6.64
2019-05-12T03:36:58.949Z,6.60
2019-05-12T03:37:56.229Z,6.61
2019-05-12T03:38:56.257Z,6.65
2019-05-12T03:39:56.275Z,6.62
2019-05-12T03:40:56.310Z,6.57
2019-05-12T03:41:56.321Z,6.67
2019-05-12T03:42:56.351Z,6.55
2019-05-12T03:43:56.372Z,6.55
2019-05-12T03:44:56.391Z,6.67
2019-05-12T03:45:56.429Z,6.55
2019-05-12T03:46:56.442Z,6.65
2019-05-12T03:47:56.459Z,6.68
2019-05-12T03:48:56.482Z,6.60
2019-05-12T03:49:56.519Z,6.55
2019-05-12T03:50:56.539Z,6.61
2019-05-12T03:51:56.553Z,6.61
2019-05-12T03:52:56.816Z,6.75
2019-05-12T03:53:56.607Z,6.64
2019-05-12T03:54:56.642Z,6.75
2019-05-12T03:55:56.651Z,6.79
2019-05-12T03:56:56.668Z,6.75
2019-05-12T03:57:56.697Z,6.78
2019-05-12T03:58:56.715Z,6.78
2019-05-12T03:59:56.744Z,6.67
2019-05-12T04:00:56.763Z,6.75
2019-05-12T04:01:56.787Z,6.85
2019-05-12T04:02:56.813Z,6.83
2019-05-12T04:03:56.835Z,6.82
2019-05-12T04:04:56.859Z,6.83
2019-05-12T04:05:56.878Z,6.85
2019-05-12T04:06:56.908Z,6.86
2019-05-12T04:07:56.937Z,6.88
2019-05-12T04:08:59.870Z,6.95
2019-05-12T04:09:56.974Z,6.94
2019-05-12T04:10:57.000Z,6.93
2019-05-12T04:11:57.022Z,6.93
2019-05-12T04:12:57.042Z,7.00
2019-05-12T04:13:57.069Z,6.97
2019-05-12T04:14:57.091Z,6.98
2019-05-12T04:15:57.125Z,7.05
2019-05-12T04:16:57.136Z,7.03
2019-05-12T04:17:57.163Z,7.11
2019-05-12T04:18:57.189Z,6.95
2019-05-12T04:19:57.208Z,7.01
2019-05-12T04:20:57.242Z,7.00
2019-05-12T04:21:57.258Z,7.05
2019-05-12T04:22:57.279Z,7.01
2019-05-12T04:23:57.304Z,7.01
2019-05-12T04:24:57.325Z,7.01
2019-05-12T04:26:06.947Z,7.11
2019-05-12T04:26:57.373Z,7.04
2019-05-12T04:27:57.399Z,7.03
2019-05-12T04:28:57.433Z,7.04
2019-05-12T04:29:57.441Z,7.09
2019-05-12T04:30:57.465Z,7.11
2019-05-12T04:31:57.494Z,7.11
2019-05-12T04:32:57.518Z,7.11
2019-05-12T04:33:57.535Z,7.12
2019-05-12T04:34:57.561Z,7.08
2019-05-12T04:35:57.583Z,7.01
2019-05-12T04:36:57.608Z,7.03
2019-05-12T04:37:57.628Z,7.08
2019-05-12T04:38:57.655Z,7.01
2019-05-12T04:39:57.682Z,7.01
2019-05-12T04:40:57.701Z,7.03
2019-05-12T04:41:57.727Z,7.05
2019-05-12T04:42:57.759Z,7.08
2019-05-12T04:43:57.771Z,7.00
2019-05-12T04:44:57.794Z,7.08
2019-05-12T04:45:57.819Z,7.08
2019-05-12T04:46:57.847Z,7.09
2019-05-12T04:47:57.864Z,7.00
2019-05-12T04:48:57.897Z,7.05
2019-05-12T04:49:57.914Z,7.11
2019-05-12T04:50:57.951Z,7.05
2019-05-12T04:51:57.966Z,7.08
2019-05-12T04:52:57.988Z,7.12
2019-05-12T04:53:58.014Z,7.19
2019-05-12T04:54:58.030Z,7.15
2019-05-12T04:56:10.695Z,7.27
2019-05-12T04:56:58.076Z,7.31
2019-05-12T04:57:58.102Z,7.34
2019-05-12T04:58:58.133Z,7.41
2019-05-12T04:59:58.156Z,7.34
2019-05-12T05:00:58.175Z,7.49
2019-05-12T05:01:58.198Z,7.67
2019-05-12T05:02:58.219Z,7.80
2019-05-12T05:03:58.244Z,7.80
2019-05-12T05:04:58.268Z,7.89
2019-05-12T05:05:58.291Z,7.83
2019-05-12T05:06:58.313Z,7.93
2019-05-12T05:07:58.340Z,7.98
2019-05-12T05:08:58.361Z,8.01
2019-05-12T05:09:58.390Z,8.01
2019-05-12T05:10:58.408Z,8.03
2019-05-12T05:11:58.441Z,7.98
2019-05-12T05:12:58.459Z,7.99
2019-05-12T05:13:58.477Z,8.04
2019-05-12T05:14:58.512Z,8.10
2019-05-12T05:15:58.527Z,7.99
2019-05-12T05:16:58.564Z,7.99
2019-05-12T05:17:58.574Z,8.01
2019-05-12T05:18:58.598Z,7.96
2019-05-12T05:19:58.624Z,8.01
2019-05-12T05:20:58.645Z,8.11
2019-05-12T05:21:58.672Z,8.10
2019-05-12T05:22:58.696Z,8.24
2019-05-12T05:23:58.922Z,8.21
2019-05-12T05:24:58.744Z,8.35
2019-05-12T05:25:58.772Z,8.31
2019-05-12T05:26:58.790Z,8.24
2019-05-12T05:27:58.815Z,8.44
2019-05-12T05:28:58.839Z,8.34
2019-05-12T05:29:58.862Z,8.29
2019-05-12T05:30:58.889Z,8.26
2019-05-12T05:31:58.912Z,8.31
2019-05-12T05:32:58.937Z,8.22
2019-05-12T05:33:58.960Z,8.25
2019-05-12T05:34:58.986Z,8.29
2019-05-12T05:35:59.010Z,8.24
2019-05-12T05:37:01.538Z,8.25
2019-05-12T05:37:59.057Z,8.25
2019-05-12T05:39:01.822Z,8.28
2019-05-12T05:39:59.108Z,8.35
2019-05-12T05:40:59.677Z,8.42
2019-05-12T05:41:59.156Z,8.49
2019-05-12T05:43:03.675Z,8.46
2019-05-12T05:43:59.205Z,8.43
2019-05-12T05:44:59.228Z,8.35
2019-05-12T05:46:02.613Z,8.44
2019-05-12T05:46:59.276Z,8.68
2019-05-12T05:47:59.627Z,8.80
2019-05-12T05:48:59.325Z,8.76
2019-05-12T05:49:59.358Z,8.77
2019-05-12T05:50:59.866Z,8.77
2019-05-12T05:51:59.400Z,9.17
2019-05-12T05:52:59.422Z,9.42
2019-05-12T05:53:59.447Z,9.21
2019-05-12T05:54:59.474Z,9.23
2019-05-12T05:56:00.338Z,9.30
2019-05-12T05:57:02.796Z,9.20
2019-05-12T05:57:59.748Z,9.21
2019-05-12T05:58:59.584Z,9.11
2019-05-12T05:59:59.607Z,9.80
2019-05-12T06:01:03.855Z,10.18
2019-05-12T06:01:59.645Z,9.85
2019-05-12T06:02:59.671Z,9.90
2019-05-12T06:04:04.300Z,10.25
2019-05-12T06:04:59.726Z,10.61
2019-05-12T06:06:01.546Z,10.20
2019-05-12T06:06:59.772Z,10.55
2019-05-12T06:07:59.796Z,10.77
2019-05-12T06:08:59.826Z,11.09
2019-05-12T06:09:59.863Z,11.24
2019-05-12T06:10:59.874Z,11.45
2019-05-12T06:12:05.227Z,11.45
2019-05-12T06:12:59.925Z,11.45
2019-05-12T06:14:03.048Z,11.63
2019-05-12T06:15:00.047Z,11.63
2019-05-12T06:16:00.003Z,11.67
2019-05-12T06:17:00.027Z,11.82
2019-05-12T06:18:00.055Z,12.08
2019-05-12T06:19:00.087Z,12.05
2019-05-12T06:20:00.111Z,12.34
2019-05-12T06:21:00.130Z,12.62
2019-05-12T06:22:00.160Z,12.53
2019-05-12T06:23:00.187Z,12.59
2019-05-12T06:24:00.215Z,12.20
2019-05-12T06:25:00.244Z,12.20
2019-05-12T06:26:00.265Z,12.16
2019-05-12T06:27:00.874Z,12.05
2019-05-12T06:28:01.441Z,12.00
2019-05-12T06:29:00.349Z,12.08
2019-05-12T06:30:01.211Z,12.20
2019-05-12T06:31:00.404Z,11.67
2019-05-12T06:32:05.145Z,11.88
2019-05-12T06:33:00.456Z,12.34
2019-05-12T06:34:00.484Z,12.53
2019-05-12T06:35:03.904Z,12.77
2019-05-12T06:36:00.543Z,12.83
2019-05-12T06:37:05.173Z,12.86
2019-05-12T06:38:01.796Z,12.94
2019-05-12T06:39:00.624Z,12.95
2019-05-12T06:40:00.733Z,12.08
2019-05-12T06:41:00.687Z,11.67
2019-05-12T06:42:08.660Z,11.21
2019-05-12T06:43:00.744Z,11.15
2019-05-12T06:44:03.524Z,10.92
2019-05-12T06:45:00.795Z,11.05
2019-05-12T06:46:00.826Z,11.03
2019-05-12T06:47:03.352Z,11.16
2019-05-12T06:48:03.250Z,12.29
2019-05-12T06:49:11.215Z,12.88
2019-05-12T06:50:00.937Z,12.96
2019-05-12T06:51:00.958Z,13.28
2019-05-12T06:52:03.140Z,12.81
2019-05-12T06:53:01.015Z,13.50
2019-05-12T06:54:05.930Z,14.02
2019-05-12T06:55:01.073Z,14.02
2019-05-12T06:56:01.100Z,13.88
2019-05-12T06:57:18.795Z,13.87
2019-05-12T06:58:01.161Z,13.88
2019-05-12T06:59:09.796Z,13.28
2019-05-12T07:00:01.214Z,12.84
2019-05-12T07:01:04.441Z,12.48
2019-05-12T07:02:03.239Z,12.43
2019-05-12T07:03:03.757Z,12.36
2019-05-12T07:04:08.794Z,12.19
2019-05-12T07:05:01.356Z,12.20
2019-05-12T07:06:03.950Z,12.28
2019-05-12T07:07:03.471Z,12.44
2019-05-12T07:08:03.986Z,12.66
2019-05-12T07:09:08.954Z,13.16
2019-05-12T07:10:10.662Z,13.09
2019-05-12T07:11:03.683Z,13.91
2019-05-12T07:12:03.801Z,14.23
2019-05-12T07:13:05.341Z,14.06
2019-05-12T07:14:07.660Z,13.81
2019-05-12T07:15:03.873Z,13.97
2019-05-12T07:16:03.703Z,13.72
2019-05-12T07:17:05.689Z,13.29
2019-05-12T07:18:03.684Z,13.28
2019-05-12T07:19:07.664Z,13.28
2019-05-12T07:20:03.862Z,13.06
2019-05-12T07:21:04.018Z,12.84
2019-05-12T07:22:03.622Z,13.35
2019-05-12T07:23:03.990Z,13.75
2019-05-12T07:24:09.097Z,13.44
2019-05-12T07:25:04.353Z,13.37
2019-05-12T07:26:06.674Z,13.83
2019-05-12T07:27:07.568Z,13.60
2019-05-12T07:28:06.981Z,13.83
2019-05-12T07:29:04.249Z,13.78
2019-05-12T07:30:04.654Z,14.19
2019-05-12T07:31:03.918Z,14.77
2019-05-12T07:32:07.122Z,15.05
2019-05-12T07:33:04.408Z,15.16
2019-05-12T07:34:05.358Z,15.04
2019-05-12T07:35:03.865Z,14.67
2019-05-12T07:36:06.367Z,15.05
2019-05-12T07:37:04.244Z,15.08
2019-05-12T07:38:04.771Z,14.41
2019-05-12T07:39:04.292Z,13.79
2019-05-12T07:40:04.648Z,13.76
2019-05-12T07:41:06.784Z,13.47
2019-05-12T07:42:03.607Z,13.60
2019-05-12T07:43:03.963Z,13.37
2019-05-12T07:44:03.656Z,13.06
2019-05-12T07:45:03.967Z,12.69
2019-05-12T07:46:06.817Z,12.58
2019-05-12T07:47:03.561Z,12.52
2019-05-12T07:48:05.690Z,12.47
2019-05-12T07:49:03.905Z,12.76
2019-05-12T07:50:04.452Z,12.62
2019-05-12T07:51:04.153Z,12.26
2019-05-12T07:52:03.616Z,12.29
2019-05-12T07:53:04.128Z,12.65
2019-05-12T07:54:04.083Z,13.47
2019-05-12T07:55:04.237Z,14.44
2019-05-12T07:56:04.113Z,14.60
2019-05-12T07:57:11.478Z,15.26
2019-05-12T07:58:12.803Z,15.71
2019-05-12T07:59:04.366Z,15.05
2019-05-12T08:00:03.693Z,14.87
2019-05-12T08:01:07.161Z,15.58
2019-05-12T08:02:03.893Z,15.07
2019-05-12T08:03:06.325Z,15.73
2019-05-12T08:04:04.512Z,16.16
2019-05-12T08:06:04.606Z,15.56
2019-05-12T08:07:03.922Z,14.90
2019-05-12T08:08:07.095Z,14.23
2019-05-12T08:09:04.145Z,13.87
2019-05-12T08:10:07.173Z,13.75
2019-05-12T08:11:04.450Z,14.16
2019-05-12T08:12:04.049Z,14.01
2019-05-12T08:13:04.378Z,13.48
2019-05-12T08:14:03.692Z,13.06
2019-05-12T08:15:07.801Z,12.63
2019-05-12T08:16:03.778Z,12.44
2019-05-12T08:17:10.951Z,12.38
2019-05-12T08:18:07.427Z,12.41
2019-05-12T08:19:04.062Z,12.52
2019-05-12T08:20:04.476Z,13.39
2019-05-12T08:21:03.902Z,14.52
2019-05-12T08:22:04.353Z,15.04
2019-05-12T08:23:08.872Z,15.55
2019-05-12T08:24:03.903Z,15.98
2019-05-12T08:25:04.149Z,16.02
2019-05-12T08:26:13.790Z,16.17
2019-05-12T08:27:06.533Z,16.65
2019-05-12T08:28:12.356Z,16.54
2019-05-12T08:29:04.398Z,15.98
2019-05-12T08:30:06.203Z,15.25
2019-05-12T08:31:03.840Z,14.60
2019-05-12T08:32:03.913Z,15.33
2019-05-12T08:33:09.679Z,14.86
2019-05-12T08:34:04.326Z,14.41
2019-05-12T08:35:05.040Z,13.97
2019-05-12T08:36:11.552Z,14.61
2019-05-12T08:37:04.442Z,15.67
2019-05-12T08:38:04.138Z,15.49
2019-05-12T08:39:06.233Z,15.81
2019-05-12T08:40:07.686Z,16.10
2019-05-12T08:41:04.411Z,16.81
2019-05-12T08:42:04.218Z,17.06
2019-05-12T08:43:07.975Z,17.36
2019-05-12T08:44:04.819Z,17.87
2019-05-12T08:45:07.971Z,18.14
2019-05-12T08:46:09.995Z,18.42
2019-05-12T08:47:04.316Z,18.17
2019-05-12T08:48:04.347Z,18.13
2019-05-12T08:49:05.357Z,18.16
2019-05-12T08:50:04.949Z,18.57
2019-05-12T08:51:13.567Z,18.27
2019-05-12T08:52:04.511Z,18.31
2019-05-12T08:53:04.911Z,17.76
2019-05-12T08:54:07.888Z,17.06
2019-05-12T08:55:04.568Z,17.45
2019-05-12T08:56:12.695Z,17.45
2019-05-12T08:57:05.847Z,16.52
2019-05-12T08:58:04.661Z,15.58
2019-05-12T08:59:09.769Z,14.77
2019-05-12T09:00:08.551Z,14.39
2019-05-12T09:01:04.755Z,14.16
2019-05-12T09:02:07.350Z,13.97
2019-05-12T09:03:04.821Z,13.62
2019-05-12T09:04:11.179Z,13.39
2019-05-12T09:05:04.904Z,13.27
2019-05-12T09:06:09.245Z,13.19
2019-05-12T09:08:04.985Z,12.99
2019-05-12T09:09:05.004Z,13.07
2019-05-12T09:10:05.035Z,13.13
2019-05-12T09:11:05.065Z,13.21
2019-05-12T09:12:05.103Z,13.54
2019-05-12T09:13:05.137Z,13.88
2019-05-12T09:14:05.852Z,13.69
2019-05-12T09:15:08.056Z,13.57
2019-05-12T09:16:05.228Z,13.57
2019-05-12T09:17:07.242Z,13.69
2019-05-12T09:18:05.279Z,14.90
2019-05-12T09:19:10.081Z,15.37
2019-05-12T09:20:08.349Z,15.71
2019-05-12T09:21:05.361Z,15.99
2019-05-12T09:22:16.522Z,16.08
2019-05-12T09:23:05.419Z,16.67
2019-05-12T09:24:05.450Z,17.21
2019-05-12T09:25:08.277Z,17.45
2019-05-12T09:26:05.506Z,17.06
2019-05-12T09:27:08.810Z,17.10
2019-05-12T09:28:05.566Z,17.42
2019-05-12T09:29:07.447Z,17.95
2019-05-12T09:30:09.681Z,18.35
2019-05-12T09:31:05.656Z,18.75
2019-05-12T09:32:09.455Z,19.15
2019-05-12T09:33:05.727Z,19.30
2019-05-12T09:34:11.600Z,19.25
2019-05-12T09:35:05.779Z,19.24
2019-05-12T09:36:05.810Z,19.45
2019-05-12T09:37:05.844Z,19.49
2019-05-12T09:38:06.347Z,19.53
2019-05-12T09:39:06.047Z,19.64
2019-05-12T09:40:05.939Z,19.45
2019-05-12T09:41:05.968Z,19.47
2019-05-12T09:42:06.008Z,20.01
2019-05-12T09:43:10.515Z,20.48
2019-05-12T09:44:06.064Z,20.68
2019-05-12T09:45:10.266Z,20.90
2019-05-12T09:51:02.029Z,16.59
2019-05-12T09:52:00.497Z,16.54
2019-05-12T09:53:05.874Z,17.99
2019-05-12T09:54:00.567Z,18.87
2019-05-12T09:55:00.599Z,18.96
2019-05-12T09:56:00.631Z,18.96
2019-05-12T09:57:00.662Z,19.53
2019-05-12T09:58:00.696Z,19.40
2019-05-12T09:59:02.839Z,19.61
2019-05-12T10:00:00.762Z,19.49
2019-05-12T10:01:00.795Z,19.60
2019-05-12T10:02:00.827Z,19.42
2019-05-12T10:03:00.911Z,19.37
2019-05-12T10:04:03.317Z,19.75
2019-05-12T10:05:01.116Z,20.05
2019-05-12T10:06:00.960Z,20.34
2019-05-12T10:07:00.997Z,20.15
2019-05-12T10:08:01.036Z,18.50
2019-05-12T10:09:03.320Z,18.59
2019-05-12T10:10:03.493Z,17.95
2019-05-12T10:11:01.132Z,16.95
2019-05-12T10:12:02.462Z,17.49
2019-05-12T10:13:01.198Z,18.02
2019-05-12T10:14:06.485Z,19.02
2019-05-12T10:15:01.281Z,18.38
2019-05-12T10:16:04.918Z,17.84
2019-05-12T10:17:03.433Z,17.77
2019-05-12T10:18:06.426Z,18.05
2019-05-12T10:19:03.766Z,18.89
2019-05-12T10:20:01.436Z,18.78
2019-05-12T10:21:01.471Z,17.94
2019-05-12T10:22:01.498Z,17.38
2019-05-12T10:23:04.046Z,17.46
2019-05-12T10:24:04.488Z,18.31
2019-05-12T10:25:03.904Z,17.31
2019-05-12T10:26:07.487Z,16.39
2019-05-12T10:27:35.107Z,16.02
2019-05-12T10:28:03.032Z,15.43
2019-05-12T10:29:16.336Z,15.41
2019-05-12T10:30:03.183Z,15.35
2019-05-12T10:31:04.016Z,16.57
2019-05-12T10:32:03.817Z,17.46
2019-05-12T10:33:03.822Z,17.49
2019-05-12T10:34:03.381Z,17.81
2019-05-12T10:35:01.930Z,16.94
2019-05-12T10:36:06.724Z,16.34
2019-05-12T10:37:03.757Z,17.27
2019-05-12T10:38:06.280Z,18.27
2019-05-12T10:39:04.183Z,18.71
2019-05-12T10:40:03.748Z,18.96
2019-05-12T10:41:03.801Z,19.53
2019-05-12T10:42:02.143Z,19.63
2019-05-12T10:43:04.534Z,19.64
2019-05-12T10:44:04.088Z,19.86
2019-05-12T10:45:04.267Z,19.87
2019-05-12T10:46:04.218Z,20.07
2019-05-12T10:47:04.202Z,20.27
2019-05-12T10:48:03.658Z,19.30
2019-05-12T10:49:03.913Z,19.75
2019-05-12T10:50:02.397Z,19.61
2019-05-12T10:51:02.430Z,18.99
2019-05-12T10:52:03.858Z,18.72
2019-05-12T10:53:04.603Z,18.34
2019-05-12T10:54:11.559Z,18.49
2019-05-12T10:55:04.467Z,18.94
2019-05-12T10:56:02.602Z,19.74
2019-05-12T10:57:05.025Z,19.02
2019-05-12T10:58:06.563Z,19.06
2019-05-12T10:59:04.279Z,18.26
2019-05-12T11:00:04.173Z,17.60
2019-05-12T11:01:05.286Z,17.05
2019-05-12T11:02:03.480Z,16.74
2019-05-12T11:03:10.115Z,16.57
2019-05-12T11:04:03.968Z,16.21
2019-05-12T11:05:02.892Z,16.52
2019-05-12T11:06:07.531Z,16.67
2019-05-12T11:07:04.657Z,16.91
2019-05-12T11:08:06.410Z,16.84
2019-05-12T11:09:03.728Z,16.52
2019-05-12T11:10:15.474Z,16.29
2019-05-12T11:11:04.164Z,17.27
2019-05-12T11:12:03.490Z,18.24
2019-05-12T11:13:08.704Z,18.78
2019-05-12T11:14:03.963Z,19.32
2019-05-12T11:15:06.824Z,19.56
2019-05-12T11:16:03.813Z,19.67
2019-05-12T11:17:07.650Z,20.04
2019-05-12T11:18:03.299Z,20.44
2019-05-12T11:19:06.413Z,20.57
2019-05-12T11:20:04.159Z,20.79
2019-05-12T11:21:03.721Z,20.75
2019-05-12T11:22:03.779Z,20.96
2019-05-12T11:23:03.785Z,21.06
2019-05-12T11:24:03.897Z,21.08
2019-05-12T11:25:04.292Z,21.15
2019-05-12T11:26:03.960Z,21.40
2019-05-12T11:27:04.064Z,21.49
2019-05-12T11:28:03.962Z,21.30
2019-05-12T11:29:03.840Z,21.93
2019-05-12T11:30:04.303Z,21.96
2019-05-12T11:31:03.718Z,21.22
2019-05-12T11:32:03.755Z,20.58
2019-05-12T11:33:04.540Z,20.56
2019-05-12T11:34:04.842Z,20.82
2019-05-12T11:35:04.208Z,21.40
2019-05-12T11:36:04.410Z,21.49
2019-05-12T11:37:03.920Z,21.62
2019-05-12T11:38:04.677Z,21.18
2019-05-12T11:39:03.991Z,20.94
2019-05-12T11:40:04.400Z,20.94
2019-05-12T11:41:04.306Z,20.60
2019-05-12T11:42:04.350Z,19.82
2019-05-12T11:45:04.197Z,18.81
2019-05-12T11:46:04.232Z,18.29
2019-05-12T11:47:04.275Z,18.05
2019-05-12T11:48:09.998Z,19.09
2019-05-12T11:49:04.486Z,19.38
2019-05-12T11:50:09.530Z,20.02
2019-05-12T11:51:04.415Z,19.85
2019-05-12T11:52:07.467Z,18.31
2019-05-12T11:53:04.552Z,17.65
2019-05-12T11:54:09.064Z,17.22
2019-05-12T11:55:04.544Z,17.07
2019-05-12T11:56:07.623Z,17.09
2019-05-12T11:57:04.604Z,16.92
2019-05-12T11:58:09.689Z,17.05
2019-05-12T11:59:04.676Z,18.53
2019-05-12T12:00:05.396Z,19.24
2019-05-12T12:01:08.100Z,19.78
2019-05-12T12:02:04.769Z,20.30
2019-05-12T12:03:12.707Z,20.60
2019-05-12T12:04:04.836Z,20.64
2019-05-12T12:05:04.870Z,20.60
2019-05-12T12:06:04.898Z,20.66
2019-05-12T12:07:04.931Z,20.42
2019-05-12T12:08:05.129Z,19.63
2019-05-12T12:09:09.186Z,19.00
2019-05-12T12:10:05.027Z,18.53
2019-05-12T12:11:05.067Z,18.02
2019-05-12T12:12:07.285Z,17.88
2019-05-12T12:13:05.126Z,17.77
2019-05-12T12:14:08.376Z,17.58
2019-05-12T12:15:05.192Z,17.03
2019-05-12T12:16:06.892Z,16.67
2019-05-12T12:17:05.254Z,16.55
2019-05-12T12:18:13.198Z,16.65
2019-05-12T12:19:05.988Z,16.54
2019-05-12T12:20:05.347Z,16.18
2019-05-12T12:21:07.593Z,16.06
2019-05-12T12:22:05.418Z,16.07
2019-05-12T12:23:10.571Z,15.93
2019-05-12T12:24:05.479Z,15.70
2019-05-12T12:25:10.842Z,15.77
2019-05-12T12:26:05.539Z,15.88
2019-05-12T12:27:05.569Z,15.67
2019-05-12T12:28:05.596Z,15.67
2019-05-12T12:29:05.627Z,15.71
2019-05-12T12:30:16.073Z,15.83
2019-05-12T12:31:07.740Z,15.99
2019-05-12T12:32:09.821Z,15.93
2019-05-12T12:33:05.742Z,15.99
2019-05-12T12:34:05.775Z,15.88
2019-05-12T12:35:09.153Z,15.74
2019-05-12T12:36:05.834Z,15.86
2019-05-12T12:37:05.861Z,15.77
2019-05-12T12:38:05.918Z,15.74
2019-05-12T12:39:05.921Z,15.86
2019-05-12T12:40:05.950Z,15.96
2019-05-12T12:41:05.982Z,16.02
2019-05-12T12:42:06.005Z,15.86
2019-05-12T12:43:06.038Z,15.88
2019-05-12T12:44:06.062Z,15.81
2019-05-12T12:45:06.094Z,15.73
2019-05-12T12:46:10.474Z,15.74
2019-05-12T12:47:06.150Z,15.71
2019-05-12T12:48:06.217Z,15.68
2019-05-12T12:49:10.276Z,16.25
2019-05-12T12:50:06.236Z,17.12
2019-05-12T12:51:06.273Z,17.46
2019-05-12T12:52:06.297Z,18.02
2019-05-12T12:53:06.335Z,18.13
2019-05-12T12:54:06.350Z,18.41
2019-05-12T12:55:08.455Z,18.60
2019-05-12T12:56:06.409Z,18.72
2019-05-12T12:57:09.886Z,18.90
2019-05-12T12:58:06.478Z,18.89
2019-05-12T12:59:10.248Z,18.97
2019-05-12T13:00:06.522Z,18.97
2019-05-12T13:01:06.556Z,19.02
2019-05-12T13:02:09.138Z,19.06
2019-05-12T13:03:06.611Z,19.13
2019-05-12T13:04:06.669Z,18.61
2019-05-12T13:05:06.678Z,18.68
2019-05-12T13:06:06.699Z,18.49
2019-05-12T13:07:06.728Z,18.60
2019-05-12T13:08:06.771Z,18.63
2019-05-12T13:09:16.923Z,18.53
2019-05-12T13:10:09.523Z,18.29
2019-05-12T13:11:06.844Z,18.19
2019-05-12T13:12:14.182Z,17.87
2019-05-12T13:13:06.899Z,17.50
2019-05-12T13:14:06.931Z,17.38